Terminal Aerodrome Forecast
Issued by NWS

Home | Current Version | Previous Version | Text Only | Print | Product List | Glossary On
Versions: 1 2 3 4 5 6 7 8 9 10 11 12
000
FTUS44 KJAN 291727
TAFGTR
TAF
KGTR 291727Z 2918/3018 18008KT P6SM VCTS BKN050CB BKN080
     FM300100 16005KT P6SM SCT100
     FM301100 16005KT P6SM OVC015
     FM301600 16005KT P6SM BKN025=

USA.gov is the U.S. government's official web portal to all federal, state and local government web resources and services.